Main page
METAR-TAF:

METAR-TAF

Airports :

Demopolis Municipal Airport

Demopolis, Alabama, United States

latitude: 32-27-50N, longitude: 087-57-15W, elevation: 112 ft

Current weather observation

The report was made 19 minutes ago, at 20:35 UTC
Wind 5 mph from the Northeast
Temperature 88°F
Humidity 31%
Pressure 30.05 in. Hg
Visibility: 10 miles
Clear sky

METAR: KDYA 032035Z AUTO 05004KT 10SM CLR 31/12 A3005 RMK AO2 T03100116

Time: 15:54 (20:54 UTC)


TAF: missing

Weather observations and forecasts of more than 4000 airports (METAR and TAF reports).

The available stations are represented by yellow and red dots on the map.

Hover mouse over dot to see the name of the station.

Then click to see weather observations and forecasts.

To change the map : click on the green buttons with a black cross to zoom in, on the green button with a dash to zoom out, or on the green arrows for adjacent maps.


METAR-TAF: